KWJF

Details ICAO KWJF
Name General Wm J Fox Airfield
Region United States
Timezone America/Los_Angeles (UTC-8.0)
Plans Departing 34
Arriving 15
Stats Elevation 2,351 ft / 717 m (AMSL)
Location 34.741048° -118.218641°
Runways 1
Magnetic Variation 12.123° E
Sunrise 2017-12-14 14:53:48 UTC / 2017-12-14 06:53:48 Local
Sunset 2017-12-15 00:44:25 UTC / 2017-12-14 16:44:25 Local
Advertisement - Login to hide

Runways

ID Width Length Bearing (true) Bearing (mag) Surface Threshold Offset Overrun Length
06 151 ft / 46 m 7,188 ft / 2,191 m 71.98° 59.86° Asphalt 0 ft / 0 m 200 ft / 61 m
24 151 ft / 46 m 7,188 ft / 2,191 m 251.99° 239.87° Asphalt 0 ft / 0 m 200 ft / 61 m

Map

Weather


0- 5 10 15 20 25 30 35+ Temperature / ° C

Clouds and Precipitation
Forecast for 2017-12-15 00:00 UTC. Updated an hour ago

Ground ~20,000 ft ~40,000 ft Winds

METAR

KWJF 142156Z 08016KT 10SM CLR 22/M11 A3015 RMK AO2 SLP213 T02171111

TAF

TAF AMD KWJF 142215Z 1422/1518 07015G20KT P6SM SKC FM150000 06007KT P6SM SKC FM150200 33008KT P6SM SKC FM150800 27004KT P6SM SKC FM151200 VRB03KT P6SM SKC

Frequencies

Recorded 126.30 MHz ATIS
Unicom 120.30 MHz CTAF
Ground 121.70 MHz GND
Approach 126.10 MHz JOSHUA APP/DEP
Recorded 133.87 MHz AWOS
Unicom 122.95 MHz UNICOM
Tower 120.30 MHz TWR
Warning: Do not use this data for real-world aviation or navigation. No guarantee of current accuracy is given.